Time;durP1;ratioP1;P1;durP2;ratioP2;P2;SDS_P1;SDS_P2;PMS_P1;PMS_P2;Temp;Humidity;BMP_temperature;BMP_pressure;BME280_temperature;BME280_humidity;BME280_pressure;Samples;Min_cycle;Max_cycle;Signal;HPM_P1;HPM_P2
2022/04/19 00:00:56;;;;;;;6.28;3.60;;;4.00;80.50;;;;;;10355568;28;20148;-83
2022/04/19 00:05:57;;;;;;;8.90;4.30;;;4.00;80.60;;;;;;10374881;28;20100;-82
2022/04/19 00:10:59;;;;;;;10.80;5.00;;;4.10;79.90;;;;;;10372876;28;20561;-81
2022/04/19 00:15:59;;;;;;;9.23;5.00;;;4.10;81.70;;;;;;10373371;28;20552;-82
2022/04/19 00:21:02;;;;;;;9.87;4.63;;;4.10;81.60;;;;;;10370332;28;20048;-84
2022/04/19 00:26:03;;;;;;;9.47;4.70;;;4.10;81.80;;;;;;10353702;28;20037;-84
2022/04/19 00:31:04;;;;;;;9.80;5.00;;;4.30;80.80;;;;;;10354615;28;20474;-82
2022/04/19 00:36:05;;;;;;;42.87;16.57;;;4.50;80.50;;;;;;10371067;28;20061;-85
2022/04/19 00:41:06;;;;;;;51.30;16.23;;;4.60;80.70;;;;;;10352008;28;20057;-83
2022/04/19 00:46:07;;;;;;;48.83;19.80;;;4.60;80.80;;;;;;10365697;28;20102;-83
2022/04/19 00:51:07;;;;;;;56.83;20.70;;;4.80;79.90;;;;;;10350035;28;20053;-81
2022/04/19 00:56:08;;;;;;;38.73;15.87;;;4.80;80.00;;;;;;10363369;28;20022;-81
2022/04/19 01:01:09;;;;;;;31.30;11.67;;;4.80;80.20;;;;;;10371335;28;20069;-86
2022/04/19 01:06:10;;;;;;;23.37;9.57;;;4.80;81.60;;;;;;10372544;28;20092;-82
2022/04/19 01:16:30;;;;;;;26.73;11.47;;;4.60;81.20;;;;;;10370398;28;20050;-82
2022/04/19 01:21:48;;;;;;;34.57;16.77;;;4.60;81.40;;;;;;10370966;28;20029;-81
2022/04/19 01:26:52;;;;;;;27.40;12.40;;;4.50;83.00;;;;;;10371586;28;20022;-82
2022/04/19 01:31:54;;;;;;;25.03;11.40;;;4.50;82.70;;;;;;10370733;28;20038;-84
2022/04/19 01:36:55;;;;;;;26.70;12.43;;;4.40;82.90;;;;;;10369661;28;20037;-80
2022/04/19 01:41:55;;;;;;;25.27;12.23;;;4.40;83.90;;;;;;10352649;28;20029;-82
2022/04/19 01:46:56;;;;;;;24.77;11.20;;;4.30;84.00;;;;;;10370227;28;20041;-85
2022/04/19 01:51:57;;;;;;;23.93;11.97;;;4.20;84.20;;;;;;10352076;28;20041;-85
2022/04/19 01:56:59;;;;;;;21.17;10.13;;;4.20;84.60;;;;;;10369041;28;20033;-81
2022/04/19 02:01:59;;;;;;;25.20;9.97;;;4.30;84.10;;;;;;10368786;28;20133;-82
2022/04/19 02:07:00;;;;;;;21.80;10.37;;;4.30;82.70;;;;;;10368997;28;20589;-82
2022/04/19 02:12:00;;;;;;;23.27;11.37;;;4.40;81.90;;;;;;10367997;28;20401;-82
2022/04/19 02:17:01;;;;;;;26.83;11.07;;;4.50;82.80;;;;;;10369191;28;20030;-84
2022/04/19 02:22:05;;;;;;;18.13;9.63;;;4.50;84.50;;;;;;10368490;28;20026;-82
2022/04/19 02:27:06;;;;;;;20.57;10.27;;;4.40;85.20;;;;;;10368946;28;20112;-82
2022/04/19 02:32:06;;;;;;;22.47;10.40;;;4.30;85.00;;;;;;10347503;28;20606;-82
2022/04/19 02:37:07;;;;;;;25.83;11.33;;;4.20;86.50;;;;;;10329662;28;20065;-81
2022/04/19 02:42:08;;;;;;;21.20;9.60;;;4.30;84.90;;;;;;10356624;28;20018;-81
2022/04/19 02:47:09;;;;;;;25.07;11.30;;;4.30;86.40;;;;;;10366865;28;20037;-82
2022/04/19 02:52:10;;;;;;;28.20;12.03;;;4.30;87.10;;;;;;10367798;28;20563;-81
2022/04/19 02:57:11;;;;;;;33.73;15.53;;;4.20;87.00;;;;;;10367788;28;20048;-82
2022/04/19 03:02:11;;;;;;;27.90;12.93;;;4.20;87.80;;;;;;10368505;28;20065;-83
2022/04/19 03:07:15;;;;;;;25.30;11.47;;;4.20;88.70;;;;;;10373768;28;20054;-82
2022/04/19 03:12:16;;;;;;;24.90;12.23;;;4.20;88.20;;;;;;10367132;28;20042;-84
2022/04/19 03:17:17;;;;;;;25.03;12.57;;;4.10;87.40;;;;;;10367004;28;20026;-81
2022/04/19 03:22:17;;;;;;;26.07;11.87;;;4.10;87.80;;;;;;10367826;28;20037;-81
2022/04/19 03:32:28;;;;;;;23.17;11.03;;;4.00;87.70;;;;;;10357247;28;20046;-80
2022/04/19 03:37:30;;;;;;;27.03;12.03;;;4.10;87.20;;;;;;10372793;28;20026;-81
2022/04/19 03:42:30;;;;;;;25.07;11.63;;;4.10;87.30;;;;;;10375668;28;20032;-81
2022/04/19 03:47:31;;;;;;;23.27;12.17;;;4.10;86.60;;;;;;10377750;28;20389;-82
2022/04/19 03:52:32;;;;;;;23.03;11.80;;;4.20;86.70;;;;;;10362729;28;20046;-82
2022/04/19 03:57:34;;;;;;;25.07;11.63;;;4.20;87.40;;;;;;10358662;28;20038;-82
2022/04/19 04:02:34;;;;;;;29.63;14.20;;;4.20;87.30;;;;;;10372519;28;20050;-83
2022/04/19 04:07:37;;;;;;;26.87;13.47;;;4.30;87.50;;;;;;10373237;28;20034;-84
2022/04/19 04:12:37;;;;;;;33.90;17.47;;;4.40;89.00;;;;;;10373636;28;20041;-83
2022/04/19 04:17:38;;;;;;;25.50;12.60;;;4.40;90.00;;;;;;10372288;28;20534;-82
2022/04/19 04:22:39;;;;;;;27.30;12.37;;;4.40;88.50;;;;;;10373804;28;20482;-82
2022/04/19 04:27:40;;;;;;;28.60;13.93;;;4.50;88.10;;;;;;10370155;28;20129;-83
2022/04/19 04:32:41;;;;;;;27.00;13.67;;;4.50;86.40;;;;;;10371197;28;20598;-82
2022/04/19 04:37:41;;;;;;;22.70;11.13;;;4.60;88.20;;;;;;10373093;28;20026;-82
2022/04/19 04:42:42;;;;;;;20.10;10.80;;;4.70;88.60;;;;;;10371938;28;20048;-82
2022/04/19 04:53:02;;;;;;;22.97;10.67;;;4.70;86.80;;;;;;10331937;28;20808;-82
2022/04/19 04:58:03;;;;;;;19.30;9.93;;;4.80;85.90;;;;;;10331591;28;20062;-82
2022/04/19 05:03:03;;;;;;;22.00;10.13;;;4.70;85.30;;;;;;10331955;28;20088;-83
2022/04/19 05:08:04;;;;;;;22.90;10.07;;;4.80;85.30;;;;;;10333735;28;20540;-83
2022/04/19 05:13:05;;;;;;;21.83;10.00;;;4.80;85.40;;;;;;10342637;28;20085;-83
2022/04/19 05:18:06;;;;;;;22.47;10.53;;;4.70;84.80;;;;;;10332037;28;20030;-82
2022/04/19 05:23:06;;;;;;;23.73;10.57;;;4.70;84.90;;;;;;10330743;28;20022;-82
2022/04/19 05:28:07;;;;;;;26.30;11.57;;;4.70;84.10;;;;;;10329564;28;20165;-82
2022/04/19 05:33:08;;;;;;;23.33;10.03;;;4.60;84.20;;;;;;10313106;28;20035;-82
2022/04/19 05:38:08;;;;;;;27.77;15.67;;;4.80;84.60;;;;;;10347172;28;20030;-83
2022/04/19 05:43:09;;;;;;;46.30;23.07;;;5.00;84.90;;;;;;10355416;28;20030;-82
2022/04/19 05:48:10;;;;;;;27.87;13.57;;;5.30;86.00;;;;;;10337145;28;20026;-82
2022/04/19 05:53:11;;;;;;;29.30;13.03;;;5.60;85.30;;;;;;10329116;28;20038;-82
2022/04/19 05:58:11;;;;;;;26.97;13.67;;;5.90;84.30;;;;;;10329548;28;20058;-82
2022/04/19 06:08:31;;;;;;;23.40;11.80;;;6.30;84.30;;;;;;10329062;28;20081;-82
2022/04/19 06:13:33;;;;;;;33.57;15.50;;;6.50;83.80;;;;;;10328808;28;20129;-82
2022/04/19 06:18:34;;;;;;;34.47;16.53;;;6.60;83.40;;;;;;10328789;28;20026;-82
2022/04/19 06:23:35;;;;;;;27.77;13.23;;;6.80;83.60;;;;;;10336861;28;20117;-83
2022/04/19 06:28:35;;;;;;;25.10;13.00;;;6.90;84.00;;;;;;10344466;28;20022;-82
2022/04/19 06:33:37;;;;;;;42.27;19.00;;;7.10;83.20;;;;;;10344732;28;20050;-82
2022/04/19 06:38:37;;;;;;;29.60;14.43;;;7.10;83.30;;;;;;10343080;28;20056;-82
2022/04/19 06:43:38;;;;;;;30.57;14.97;;;7.10;82.40;;;;;;10349555;28;20033;-82
2022/04/19 06:48:39;;;;;;;26.03;12.63;;;7.00;82.00;;;;;;10340579;28;20081;-82
2022/04/19 06:53:39;;;;;;;19.40;8.70;;;7.10;81.50;;;;;;10362967;28;20060;-81
2022/04/19 06:58:40;;;;;;;19.17;10.00;;;7.20;81.80;;;;;;10362876;28;20062;-81
2022/04/19 07:03:41;;;;;;;19.70;11.17;;;7.20;80.90;;;;;;10360294;28;20026;-80
2022/04/19 07:08:42;;;;;;;27.93;12.57;;;7.40;80.90;;;;;;10366616;28;20034;-82
2022/04/19 07:13:43;;;;;;;27.73;13.07;;;7.60;81.90;;;;;;10366800;28;20401;-80
2022/04/19 07:18:44;;;;;;;31.40;15.10;;;7.80;81.80;;;;;;10366556;28;20485;-81
2022/04/19 07:29:04;;;;;;;22.70;11.50;;;8.20;81.50;;;;;;10365252;28;20034;-81
2022/04/19 07:34:06;;;;;;;19.20;10.63;;;8.00;81.50;;;;;;10347596;28;20136;-80
2022/04/19 07:39:08;;;;;;;27.63;15.97;;;7.70;82.20;;;;;;10353150;28;20570;-81
2022/04/19 07:44:09;;;;;;;24.73;12.97;;;7.50;82.10;;;;;;10342304;28;20136;-81
2022/04/19 07:49:09;;;;;;;22.93;13.27;;;7.30;83.30;;;;;;10366654;28;20105;-81
2022/04/19 07:54:10;;;;;;;18.03;10.43;;;7.70;84.40;;;;;;10365922;28;20057;-81
2022/04/19 07:59:11;;;;;;;21.97;11.93;;;8.20;83.00;;;;;;10366641;28;20228;-81
2022/04/19 08:04:11;;;;;;;18.33;10.83;;;8.30;83.30;;;;;;10347106;28;20037;-82
2022/04/19 08:09:12;;;;;;;19.53;11.87;;;8.70;82.20;;;;;;10350514;28;20036;-81
2022/04/19 08:14:13;;;;;;;20.60;11.63;;;8.80;81.40;;;;;;10365763;28;20045;-81
2022/04/19 08:19:14;;;;;;;35.07;17.47;;;8.80;80.90;;;;;;10357053;28;20474;-82
2022/04/19 08:24:14;;;;;;;20.70;10.87;;;8.90;81.10;;;;;;10373902;28;20045;-82
2022/04/19 08:29:15;;;;;;;21.87;11.67;;;8.90;80.90;;;;;;10372700;28;20019;-82
2022/04/19 08:34:16;;;;;;;17.33;10.77;;;9.10;80.40;;;;;;10372900;28;20034;-81
2022/04/19 08:39:16;;;;;;;39.03;15.07;;;9.30;79.90;;;;;;10365356;28;20561;-81
2022/04/19 08:44:18;;;;;;;16.67;9.77;;;9.50;79.40;;;;;;10366557;28;20040;-82
2022/04/19 08:49:20;;;;;;;32.73;14.40;;;9.60;78.50;;;;;;10351815;28;20103;-82
2022/04/19 08:59:41;;;;;;;20.07;10.70;;;9.30;76.50;;;;;;10358225;28;20065;-79
2022/04/19 09:04:41;;;;;;;13.00;8.60;;;9.10;77.70;;;;;;10360780;28;20434;-80
2022/04/19 09:09:42;;;;;;;14.10;8.93;;;8.90;79.20;;;;;;10355047;28;20037;-80
2022/04/19 09:15:08;;;;;;;25.30;13.83;;;8.80;78.30;;;;;;10355280;28;20038;-79
2022/04/19 09:20:15;;;;;;;17.05;9.07;;;8.70;79.40;;;;;;10365986;28;20038;-79
2022/04/19 09:25:18;;;;;;;14.23;9.83;;;8.90;80.80;;;;;;10356718;28;20036;-80
2022/04/19 09:30:20;;;;;;;15.07;9.60;;;9.10;78.80;;;;;;10369473;28;20536;-81
2022/04/19 09:35:29;;;;;;;14.90;9.80;;;9.10;78.70;;;;;;10370265;28;20080;-81
2022/04/19 09:40:36;;;;;;;16.63;10.23;;;9.20;77.50;;;;;;10365221;28;20509;-81
2022/04/19 09:45:51;;;;;;;16.23;10.70;;;9.50;77.70;;;;;;10361838;28;20045;-81
2022/04/19 09:51:02;;;;;;;18.03;11.27;;;9.80;75.30;;;;;;10366994;28;20045;-80
2022/04/19 09:56:18;;;;;;;18.70;12.33;;;9.90;74.30;;;;;;10367349;28;20034;-81
2022/04/19 10:11:58;;;;;;;19.73;12.37;;;9.50;74.30;;;;;;10362431;28;20054;-81
2022/04/19 10:17:00;;;;;;;18.83;12.20;;;9.20;74.10;;;;;;10351489;28;20031;-80
2022/04/19 10:22:06;;;;;;;16.20;11.57;;;9.20;76.50;;;;;;10354062;28;20105;-80
2022/04/19 10:27:10;;;;;;;16.60;11.50;;;9.30;74.40;;;;;;10347435;28;20029;-81
2022/04/19 10:32:12;;;;;;;17.80;11.90;;;9.40;75.10;;;;;;10355023;28;20137;-80
2022/04/19 10:37:15;;;;;;;21.23;12.50;;;9.70;74.40;;;;;;10364619;28;20071;-81
2022/04/19 10:42:32;;;;;;;20.17;11.97;;;9.80;73.60;;;;;;10353945;28;20101;-81
2022/04/19 10:47:32;;;;;;;19.00;11.80;;;10.00;71.80;;;;;;10343744;28;20025;-81
2022/04/19 10:52:38;;;;;;;20.57;11.87;;;9.80;71.50;;;;;;10356731;28;20083;-84
2022/04/19 11:03:08;;;;;;;18.43;11.40;;;9.60;72.40;;;;;;10347038;28;20365;-82
2022/04/19 11:08:25;;;;;;;22.17;12.80;;;9.60;73.00;;;;;;10345712;28;20046;-81
2022/04/19 11:13:27;;;;;;;18.93;12.80;;;9.70;74.10;;;;;;10348584;28;20038;-81
2022/04/19 11:18:32;;;;;;;23.50;13.97;;;9.50;74.80;;;;;;10365156;28;20464;-82
2022/04/19 11:23:44;;;;;;;77.30;31.47;;;9.30;76.80;;;;;;10364359;28;20030;-82
2022/04/19 11:29:10;;;;;;;34.90;19.53;;;9.30;77.40;;;;;;10360941;28;20602;-81
2022/04/19 11:34:15;;;;;;;51.22;26.25;;;9.30;76.80;;;;;;10347400;28;20081;-81
2022/04/19 11:50:02;;;;;;;34.30;19.43;;;9.70;77.10;;;;;;10348701;28;20042;-81
2022/04/19 11:55:03;;;;;;;38.00;19.97;;;9.90;76.60;;;;;;10352671;28;20029;-81
2022/04/19 12:00:05;;;;;;;33.10;19.80;;;9.80;77.00;;;;;;10353413;28;20054;-81
2022/04/19 12:05:06;;;;;;;28.50;17.53;;;9.60;77.60;;;;;;10357985;28;20029;-82
2022/04/19 12:10:08;;;;;;;22.83;12.93;;;9.20;77.80;;;;;;10362833;28;20038;-82
2022/04/19 12:15:09;;;;;;;39.03;25.13;;;9.10;78.10;;;;;;10346806;28;20091;-81
2022/04/19 12:20:10;;;;;;;22.93;14.27;;;9.20;78.80;;;;;;10352709;28;20522;-81
2022/04/19 12:25:20;;;;;;;19.27;12.30;;;9.30;78.60;;;;;;10354299;28;20030;-82
2022/04/19 12:30:28;;;;;;;31.10;16.10;;;9.10;77.30;;;;;;10357321;28;20385;-81
2022/04/19 12:35:34;;;;;;;89.77;38.60;;;9.20;77.50;;;;;;10344745;28;20061;-81
2022/04/19 12:40:35;;;;;;;40.35;20.00;;;9.20;78.60;;;;;;10359712;28;20033;-82
2022/04/19 12:45:37;;;;;;;18.60;12.03;;;9.20;78.70;;;;;;10364183;28;20022;-80
2022/04/19 12:50:38;;;;;;;208.43;102.07;;;9.10;78.60;;;;;;10370961;28;20037;-82
2022/04/19 12:55:38;;;;;;;198.87;109.57;;;9.10;79.80;;;;;;10342167;28;20508;-83
2022/04/19 13:00:39;;;;;;;175.17;158.57;;;9.10;79.60;;;;;;10357585;28;20060;-80
2022/04/19 13:16:18;;;;;;;39.17;20.53;;;9.80;81.30;;;;;;10367021;28;20422;-80
2022/04/19 13:21:19;;;;;;;35.63;19.93;;;9.70;83.30;;;;;;10366112;28;20018;-81
2022/04/19 13:26:20;;;;;;;22.23;13.93;;;9.90;84.40;;;;;;10369681;28;20033;-82
2022/04/19 13:31:26;;;;;;;22.90;14.10;;;10.70;81.30;;;;;;10356743;28;20045;-81
2022/04/19 13:36:26;;;;;;;;;;;10.80;79.20;;;;;;10355542;28;20033;-82
2022/04/19 13:41:29;;;;;;;22.35;13.65;;;10.60;77.50;;;;;;10353402;28;19909;-81
2022/04/19 13:46:31;;;;;;;20.67;13.33;;;10.50;78.50;;;;;;10356527;28;20105;-81
2022/04/19 13:51:35;;;;;;;21.07;12.70;;;10.40;77.50;;;;;;10364443;28;20045;-82
2022/04/19 13:56:38;;;;;;;15.87;10.83;;;10.30;77.50;;;;;;10359590;28;20030;-81
2022/04/19 14:01:39;;;;;;;17.23;11.70;;;10.30;74.10;;;;;;10367796;28;20066;-80
2022/04/19 14:06:41;;;;;;;17.57;11.33;;;10.20;72.20;;;;;;10349555;28;20030;-82
2022/04/19 14:11:42;;;;;;;17.50;10.73;;;10.30;75.40;;;;;;10363415;28;20389;-83
2022/04/19 14:16:42;;;;;;;15.50;10.33;;;10.40;72.50;;;;;;10344042;28;20030;-81
2022/04/19 14:21:43;;;;;;;14.10;10.30;;;10.30;74.90;;;;;;10353462;28;20683;-80
2022/04/19 14:26:44;;;;;;;13.87;9.80;;;10.40;73.00;;;;;;10335943;28;20038;-81
2022/04/19 14:37:04;;;;;;;14.90;8.87;;;10.50;69.20;;;;;;10358706;28;20506;-80
2022/04/19 14:42:05;;;;;;;14.40;8.67;;;9.90;72.10;;;;;;10345278;28;20042;-81
2022/04/19 14:47:05;;;;;;;14.37;8.10;;;9.50;75.50;;;;;;10335865;28;20073;-80
2022/04/19 14:52:18;;;;;;;14.13;8.87;;;8.90;78.70;;;;;;10340141;28;20037;-81
2022/04/19 14:57:21;;;;;;;13.43;8.77;;;8.60;80.30;;;;;;10363932;28;20570;-80
2022/04/19 15:02:29;;;;;;;12.80;8.10;;;8.50;81.40;;;;;;10362289;28;20434;-82
2022/04/19 15:07:34;;;;;;;14.57;9.13;;;8.40;82.00;;;;;;10364713;28;20041;-81
2022/04/19 15:12:35;;;;;;;12.70;8.03;;;8.40;81.80;;;;;;10366505;28;20158;-81
2022/04/19 15:17:35;;;;;;;11.27;7.70;;;8.40;80.40;;;;;;10360907;28;20667;-82
2022/04/19 15:22:36;;;;;;;11.97;7.50;;;8.40;81.10;;;;;;10366789;28;20083;-81
2022/04/19 15:27:37;;;;;;;11.97;7.90;;;8.40;80.60;;;;;;10369699;28;20022;-83
2022/04/19 15:32:38;;;;;;;17.63;9.20;;;8.30;79.60;;;;;;10375438;28;20601;-80
2022/04/19 15:37:39;;;;;;;15.97;8.50;;;8.30;79.10;;;;;;10374224;28;20029;-81
2022/04/19 15:42:40;;;;;;;10.87;7.33;;;8.20;78.40;;;;;;10373912;28;20030;-82
2022/04/19 15:47:40;;;;;;;13.80;7.97;;;8.20;78.70;;;;;;10372523;28;20022;-79
2022/04/19 15:52:41;;;;;;;12.43;8.53;;;8.10;78.90;;;;;;10368891;28;20146;-78
2022/04/19 15:57:43;;;;;;;15.63;9.23;;;8.10;78.80;;;;;;10356801;28;20044;-81
2022/04/19 16:02:44;;;;;;;16.30;9.07;;;8.00;79.60;;;;;;10373486;28;20133;-81
2022/04/19 16:07:45;;;;;;;15.63;9.30;;;7.90;79.20;;;;;;10373306;28;20040;-83
2022/04/19 16:12:46;;;;;;;16.77;9.33;;;7.90;79.80;;;;;;10372968;28;20029;-80
2022/04/19 16:23:21;;;;;;;16.07;9.60;;;8.00;79.40;;;;;;10348311;28;20037;-80
2022/04/19 16:28:24;;;;;;;13.83;7.90;;;8.10;79.00;;;;;;10362647;28;20037;-80
2022/04/19 16:33:24;;;;;;;10.90;7.37;;;8.10;79.70;;;;;;10342895;28;20045;-80
2022/04/19 16:38:26;;;;;;;10.37;7.30;;;8.20;77.90;;;;;;10362953;28;20028;-80
2022/04/19 16:43:27;;;;;;;14.20;8.20;;;8.20;77.40;;;;;;10359319;28;20021;-81
2022/04/19 16:48:28;;;;;;;13.60;7.57;;;8.10;76.80;;;;;;10358781;28;20433;-80
2022/04/19 16:53:35;;;;;;;11.47;6.23;;;8.00;77.00;;;;;;10349087;28;20038;-81
2022/04/19 16:58:35;;;;;;;12.77;7.33;;;7.90;76.70;;;;;;10352120;28;20418;-81
2022/04/19 17:08:57;;;;;;;10.20;6.07;;;7.60;77.90;;;;;;10353832;28;20466;-81
2022/04/19 17:13:58;;;;;;;10.30;6.73;;;7.50;78.30;;;;;;10359112;28;20038;-79
2022/04/19 17:18:58;;;;;;;12.17;7.30;;;7.40;78.70;;;;;;10359058;28;20026;-82
2022/04/19 17:24:00;;;;;;;14.17;7.00;;;7.20;78.90;;;;;;10362722;28;20022;-80
2022/04/19 17:29:01;;;;;;;14.70;6.97;;;7.10;79.40;;;;;;10355592;28;20074;-84
2022/04/19 17:34:02;;;;;;;14.77;7.40;;;7.00;79.70;;;;;;10350648;28;20042;-81
2022/04/19 17:39:03;;;;;;;12.17;6.50;;;6.80;80.30;;;;;;10370851;28;20113;-81
2022/04/19 17:44:05;;;;;;;11.23;6.50;;;6.50;82.00;;;;;;10367926;28;20231;-81
2022/04/19 17:49:06;;;;;;;10.03;6.33;;;6.00;83.40;;;;;;10359767;28;20077;-83
2022/04/19 17:59:26;;;;;;;14.10;7.47;;;5.30;85.70;;;;;;10362266;28;20106;-81
2022/04/19 18:04:27;;;;;;;18.00;9.13;;;5.00;86.80;;;;;;10364178;28;20017;-80
2022/04/19 18:09:28;;;;;;;20.97;9.37;;;4.70;88.60;;;;;;10364538;28;20421;-80
2022/04/19 18:14:29;;;;;;;23.07;11.17;;;4.40;89.50;;;;;;10365365;28;20042;-82
2022/04/19 18:19:31;;;;;;;27.60;14.37;;;4.30;90.40;;;;;;10354869;28;20030;-80
2022/04/19 18:29:51;;;;;;;117.00;45.97;;;3.90;91.80;;;;;;10359798;28;20068;-80
2022/04/19 18:34:52;;;;;;;154.70;60.13;;;3.70;92.50;;;;;;10363867;28;20120;-82
2022/04/19 18:39:53;;;;;;;130.83;53.53;;;3.60;93.80;;;;;;10349293;28;20022;-80
2022/04/19 18:44:54;;;;;;;94.70;37.27;;;3.40;94.80;;;;;;10347882;28;20060;-82
2022/04/19 18:49:55;;;;;;;63.37;25.90;;;3.40;97.20;;;;;;10348327;28;20040;-80
2022/04/19 18:54:55;;;;;;;43.07;18.00;;;3.30;98.40;;;;;;10363137;28;20041;-79
2022/04/19 18:59:56;;;;;;;38.17;16.97;;;3.20;99.90;;;;;;10333713;28;20125;-78
2022/04/19 19:04:57;;;;;;;31.20;16.97;;;3.10;99.90;;;;;;10334371;28;20026;-79
2022/04/19 19:09:57;;;;;;;35.67;17.27;;;3.00;99.90;;;;;;10337206;28;20026;-81
2022/04/19 19:14:58;;;;;;;34.17;16.63;;;2.90;99.90;;;;;;10345437;28;20512;-81
2022/04/19 19:19:59;;;;;;;31.93;16.33;;;2.80;99.90;;;;;;10340784;28;20041;-81
2022/04/19 19:25:00;;;;;;;28.57;14.67;;;2.80;99.90;;;;;;10328689;28;20772;-82
2022/04/19 19:30:01;;;;;;;26.67;15.73;;;2.80;99.90;;;;;;10335403;28;20037;-84
2022/04/19 19:35:04;;;;;;;35.30;18.37;;;2.80;99.90;;;;;;10335353;28;20030;-80
2022/04/19 19:40:06;;;;;;;45.77;21.60;;;2.70;99.90;;;;;;10312176;28;20042;-82
2022/04/19 19:45:08;;;;;;;58.57;26.50;;;2.70;99.90;;;;;;10329424;28;20029;-84
2022/04/19 19:50:10;;;;;;;75.57;30.77;;;2.50;99.90;;;;;;10328542;28;20042;-83
2022/04/19 19:55:11;;;;;;;71.80;31.30;;;2.50;99.90;;;;;;10342255;28;20022;-82
2022/04/19 20:00:12;;;;;;;73.27;32.73;;;2.40;99.90;;;;;;10348808;28;20693;-81
2022/04/19 20:05:13;;;;;;;68.23;31.23;;;2.30;99.90;;;;;;10355587;28;20026;-82
2022/04/19 20:10:19;;;;;;;66.03;30.77;;;2.30;99.90;;;;;;10354650;28;20030;-82
2022/04/19 20:15:20;;;;;;;67.60;30.55;;;2.30;99.90;;;;;;10359663;28;20029;-81
2022/04/19 20:20:20;;;;;;;65.07;31.70;;;2.20;99.90;;;;;;10360201;28;20026;-83
2022/04/19 20:25:21;;;;;;;61.17;29.30;;;2.20;99.90;;;;;;10346555;28;20061;-85
2022/04/19 20:30:22;;;;;;;67.77;31.20;;;2.20;99.90;;;;;;10360867;28;20540;-81
2022/04/19 20:35:23;;;;;;;61.90;27.37;;;2.20;99.90;;;;;;10361220;28;20036;-83
2022/04/19 20:40:23;;;;;;;57.40;28.23;;;2.10;99.90;;;;;;10362307;28;20037;-82
2022/04/19 20:45:24;;;;;;;58.57;25.50;;;2.20;99.90;;;;;;10363618;28;20022;-81
2022/04/19 20:50:25;;;;;;;50.47;25.07;;;2.20;99.90;;;;;;10371419;28;20049;-82
2022/04/19 20:55:28;;;;;;;50.13;24.57;;;2.20;99.90;;;;;;10372155;28;20042;-80
2022/04/19 21:00:30;;;;;;;46.03;22.70;;;2.30;99.90;;;;;;10360646;28;20494;-81
2022/04/19 21:05:31;;;;;;;49.63;23.70;;;2.30;99.90;;;;;;10367799;28;20168;-81
2022/04/19 21:10:32;;;;;;;47.20;22.87;;;2.30;99.90;;;;;;10370827;28;20099;-82
2022/04/19 21:15:32;;;;;;;45.57;20.70;;;2.30;99.90;;;;;;10370803;28;20117;-81
2022/04/19 21:20:34;;;;;;;41.70;21.43;;;2.20;99.90;;;;;;10372418;28;20069;-81
2022/04/19 21:25:35;;;;;;;49.53;23.30;;;2.10;99.90;;;;;;10372072;28;20022;-82
2022/04/19 21:30:36;;;;;;;50.57;25.13;;;2.00;99.90;;;;;;10369748;28;20025;-82
2022/04/19 21:35:36;;;;;;;49.20;22.97;;;2.00;99.90;;;;;;10371008;28;20030;-81
2022/04/19 21:40:37;;;;;;;39.37;19.37;;;2.00;99.90;;;;;;10370232;28;20076;-81
2022/04/19 21:45:37;;;;;;;45.10;21.23;;;1.90;99.90;;;;;;10370543;28;20029;-82
2022/04/19 21:50:38;;;;;;;37.57;20.33;;;1.80;99.90;;;;;;10370275;28;20042;-82
2022/04/19 21:55:39;;;;;;;44.77;20.83;;;1.80;99.90;;;;;;10370365;28;20018;-81
2022/04/19 22:01:02;;;;;;;49.23;21.70;;;1.80;99.90;;;;;;10367485;28;20046;-81
2022/04/19 22:06:03;;;;;;;44.33;21.27;;;1.70;99.90;;;;;;10359369;28;20022;-81
2022/04/19 22:11:04;;;;;;;54.53;25.30;;;1.60;99.90;;;;;;10369251;28;20497;-81
2022/04/19 22:16:05;;;;;;;56.13;25.07;;;1.50;99.90;;;;;;10368983;28;20053;-82
2022/04/19 22:21:06;;;;;;;45.17;22.07;;;1.50;99.90;;;;;;10368464;28;20046;-81
2022/04/19 22:26:07;;;;;;;52.80;23.93;;;1.50;99.90;;;;;;10369161;28;20026;-81
2022/04/19 22:31:07;;;;;;;46.80;22.93;;;1.50;99.90;;;;;;10368009;28;20398;-82
2022/04/19 22:36:08;;;;;;;43.03;21.50;;;1.50;99.90;;;;;;10368571;28;20034;-82
2022/04/19 22:41:08;;;;;;;46.23;20.13;;;1.50;99.90;;;;;;10368018;28;20025;-81
2022/04/19 22:46:09;;;;;;;35.43;19.13;;;1.50;99.90;;;;;;10369218;28;20034;-82
2022/04/19 22:51:10;;;;;;;39.00;20.47;;;1.40;99.90;;;;;;10368022;28;20038;-82
2022/04/19 22:56:10;;;;;;;36.67;18.00;;;1.40;99.90;;;;;;10367826;28;20060;-81
2022/04/19 23:01:11;;;;;;;31.20;17.10;;;1.40;99.90;;;;;;10367562;28;20054;-81
2022/04/19 23:06:11;;;;;;;36.27;17.63;;;1.40;99.90;;;;;;10367201;28;20041;-81
2022/04/19 23:11:12;;;;;;;36.23;18.33;;;1.40;99.90;;;;;;10368023;28;20180;-83
2022/04/19 23:16:13;;;;;;;34.57;16.07;;;1.40;99.90;;;;;;10366547;28;20038;-82
2022/04/19 23:21:13;;;;;;;31.67;16.57;;;1.30;99.90;;;;;;10367055;28;20410;-81
2022/04/19 23:31:33;;;;;;;34.23;16.67;;;1.30;99.90;;;;;;10365924;28;20050;-82
2022/04/19 23:36:35;;;;;;;36.87;17.47;;;1.20;99.90;;;;;;10367270;28;20034;-82
2022/04/19 23:41:35;;;;;;;49.23;22.60;;;1.10;99.90;;;;;;10366349;28;20496;-82
2022/04/19 23:46:36;;;;;;;44.23;21.13;;;1.00;99.90;;;;;;10366364;28;20041;-83
2022/04/19 23:51:36;;;;;;;49.53;23.80;;;1.00;99.90;;;;;;10374063;28;20416;-83
2022/04/19 23:56:37;;;;;;;46.90;22.63;;;0.90;99.90;;;;;;10374009;28;20033;-82
